sensor_id;sensor_type;location;lat;lon;timestamp;pressure;altitude;pressure_sealevel;temperature;humidity
5455;BME280;2750;49.050;9.250;2023-07-20T00:00:50;98578.50;;;21.78;65.07
5455;BME280;2750;49.050;9.250;2023-07-20T00:05:53;98585.59;;;21.77;65.25
5455;BME280;2750;49.050;9.250;2023-07-20T00:10:56;98582.63;;;21.63;65.71
5455;BME280;2750;49.050;9.250;2023-07-20T00:15:58;98592.34;;;21.62;65.83
5455;BME280;2750;49.050;9.250;2023-07-20T00:21:00;98596.91;;;21.33;66.52
5455;BME280;2750;49.050;9.250;2023-07-20T00:26:03;98600.44;;;21.51;66.33
5455;BME280;2750;49.050;9.250;2023-07-20T00:31:05;98597.44;;;21.36;66.57
5455;BME280;2750;49.050;9.250;2023-07-20T00:36:06;98597.91;;;21.22;67.01
5455;BME280;2750;49.050;9.250;2023-07-20T00:41:09;98600.38;;;21.33;66.67
5455;BME280;2750;49.050;9.250;2023-07-20T00:46:11;98593.31;;;21.24;67.04
5455;BME280;2750;49.050;9.250;2023-07-20T00:51:13;98589.03;;;21.14;67.18
5455;BME280;2750;49.050;9.250;2023-07-20T00:56:16;98596.69;;;20.88;68.15
5455;BME280;2750;49.050;9.250;2023-07-20T01:01:17;98599.75;;;20.74;68.04
5455;BME280;2750;49.050;9.250;2023-07-20T01:06:28;98604.19;;;20.44;68.98
5455;BME280;2750;49.050;9.250;2023-07-20T01:11:38;98608.63;;;20.44;68.73
5455;BME280;2750;49.050;9.250;2023-07-20T01:16:40;98603.06;;;20.37;68.91
5455;BME280;2750;49.050;9.250;2023-07-20T01:21:46;98610.03;;;20.38;68.64
5455;BME280;2750;49.050;9.250;2023-07-20T01:27:26;98600.56;;;20.36;68.96
5455;BME280;2750;49.050;9.250;2023-07-20T01:32:34;98609.81;;;20.11;69.77
5455;BME280;2750;49.050;9.250;2023-07-20T01:37:38;98613.22;;;20.02;70.43
5455;BME280;2750;49.050;9.250;2023-07-20T01:42:43;98611.50;;;19.82;70.64
5455;BME280;2750;49.050;9.250;2023-07-20T01:47:47;98609.53;;;20.04;70.57
5455;BME280;2750;49.050;9.250;2023-07-20T01:52:48;98606.28;;;20.31;70.24
5455;BME280;2750;49.050;9.250;2023-07-20T01:57:50;98621.78;;;19.85;71.21
5455;BME280;2750;49.050;9.250;2023-07-20T02:02:52;98612.09;;;19.85;71.27
5455;BME280;2750;49.050;9.250;2023-07-20T02:07:54;98614.25;;;19.71;71.70
5455;BME280;2750;49.050;9.250;2023-07-20T02:12:55;98613.75;;;19.86;71.73
5455;BME280;2750;49.050;9.250;2023-07-20T02:17:58;98606.50;;;19.79;71.87
5455;BME280;2750;49.050;9.250;2023-07-20T02:23:00;98605.56;;;19.80;71.88
5455;BME280;2750;49.050;9.250;2023-07-20T02:28:01;98606.91;;;19.74;72.09
5455;BME280;2750;49.050;9.250;2023-07-20T02:33:04;98612.50;;;19.81;72.28
5455;BME280;2750;49.050;9.250;2023-07-20T02:38:06;98619.22;;;20.04;71.72
5455;BME280;2750;49.050;9.250;2023-07-20T02:43:08;98618.34;;;20.34;70.77
5455;BME280;2750;49.050;9.250;2023-07-20T02:48:11;98620.06;;;20.14;71.15
5455;BME280;2750;49.050;9.250;2023-07-20T02:53:12;98626.78;;;19.88;71.76
5455;BME280;2750;49.050;9.250;2023-07-20T02:58:14;98626.03;;;20.16;71.09
5455;BME280;2750;49.050;9.250;2023-07-20T03:03:17;98630.56;;;19.95;71.72
5455;BME280;2750;49.050;9.250;2023-07-20T03:08:19;98637.53;;;19.75;72.34
5455;BME280;2750;49.050;9.250;2023-07-20T03:13:21;98646.47;;;19.84;72.08
5455;BME280;2750;49.050;9.250;2023-07-20T03:18:25;98638.47;;;19.95;71.76
5455;BME280;2750;49.050;9.250;2023-07-20T03:23:27;98639.72;;;19.70;72.45
5455;BME280;2750;49.050;9.250;2023-07-20T03:28:28;98642.50;;;19.69;72.41
5455;BME280;2750;49.050;9.250;2023-07-20T03:33:32;98648.13;;;19.54;73.08
5455;BME280;2750;49.050;9.250;2023-07-20T03:38:33;98650.69;;;19.66;72.71
5455;BME280;2750;49.050;9.250;2023-07-20T03:43:35;98649.88;;;19.44;73.12
5455;BME280;2750;49.050;9.250;2023-07-20T03:48:38;98650.88;;;19.32;73.50
5455;BME280;2750;49.050;9.250;2023-07-20T03:53:39;98663.34;;;19.30;73.57
5455;BME280;2750;49.050;9.250;2023-07-20T03:58:41;98659.34;;;19.56;73.28
5455;BME280;2750;49.050;9.250;2023-07-20T04:03:44;98648.78;;;20.17;71.41
5455;BME280;2750;49.050;9.250;2023-07-20T04:08:46;98658.63;;;20.84;69.88
5455;BME280;2750;49.050;9.250;2023-07-20T04:13:48;98661.09;;;21.24;69.18
5455;BME280;2750;49.050;9.250;2023-07-20T04:18:51;98661.22;;;21.41;68.82
5455;BME280;2750;49.050;9.250;2023-07-20T04:23:52;98659.69;;;21.95;67.53
5455;BME280;2750;49.050;9.250;2023-07-20T04:28:54;98666.47;;;23.41;64.23
5455;BME280;2750;49.050;9.250;2023-07-20T04:33:57;98661.44;;;23.55;63.83
5455;BME280;2750;49.050;9.250;2023-07-20T04:38:58;98669.03;;;23.50;64.28
5455;BME280;2750;49.050;9.250;2023-07-20T04:44:00;98659.47;;;23.83;64.15
5455;BME280;2750;49.050;9.250;2023-07-20T04:49:03;98667.38;;;23.31;65.14
5455;BME280;2750;49.050;9.250;2023-07-20T04:54:04;98664.50;;;23.43;64.81
5455;BME280;2750;49.050;9.250;2023-07-20T04:59:06;98665.84;;;22.40;66.91
5455;BME280;2750;49.050;9.250;2023-07-20T05:04:09;98673.25;;;21.73;69.07
5455;BME280;2750;49.050;9.250;2023-07-20T05:09:10;98667.66;;;22.85;66.80
5455;BME280;2750;49.050;9.250;2023-07-20T05:14:12;98669.59;;;24.21;63.85
5455;BME280;2750;49.050;9.250;2023-07-20T05:19:15;98661.47;;;25.62;61.23
5455;BME280;2750;49.050;9.250;2023-07-20T05:24:16;98661.56;;;27.16;58.38
5455;BME280;2750;49.050;9.250;2023-07-20T05:29:18;98667.44;;;27.49;57.60
5455;BME280;2750;49.050;9.250;2023-07-20T05:34:21;98662.75;;;27.14;58.52
5455;BME280;2750;49.050;9.250;2023-07-20T05:39:22;98658.56;;;28.30;55.04
5455;BME280;2750;49.050;9.250;2023-07-20T05:44:24;98660.41;;;28.00;56.37
5455;BME280;2750;49.050;9.250;2023-07-20T05:49:27;98659.09;;;28.25;55.97
5455;BME280;2750;49.050;9.250;2023-07-20T05:54:28;98659.75;;;28.99;55.47
5455;BME280;2750;49.050;9.250;2023-07-20T05:59:30;98669.19;;;28.44;54.99
5455;BME280;2750;49.050;9.250;2023-07-20T06:04:33;98660.75;;;31.11;51.12
5455;BME280;2750;49.050;9.250;2023-07-20T06:09:35;98659.09;;;31.36;50.36
5455;BME280;2750;49.050;9.250;2023-07-20T06:14:36;98662.34;;;33.31;48.21
5455;BME280;2750;49.050;9.250;2023-07-20T06:19:40;98663.91;;;32.76;47.58
5455;BME280;2750;49.050;9.250;2023-07-20T06:24:41;98665.75;;;32.37;47.57
5455;BME280;2750;49.050;9.250;2023-07-20T06:29:43;98660.31;;;33.20;47.83
5455;BME280;2750;49.050;9.250;2023-07-20T06:34:46;98650.03;;;33.10;48.25
5455;BME280;2750;49.050;9.250;2023-07-20T06:39:47;98653.34;;;33.12;47.95
5455;BME280;2750;49.050;9.250;2023-07-20T06:44:49;98652.28;;;33.62;47.25
5455;BME280;2750;49.050;9.250;2023-07-20T06:49:52;98653.47;;;32.92;48.44
5455;BME280;2750;49.050;9.250;2023-07-20T06:54:53;98653.53;;;32.41;48.46
5455;BME280;2750;49.050;9.250;2023-07-20T06:59:55;98649.81;;;32.42;49.04
5455;BME280;2750;49.050;9.250;2023-07-20T07:04:57;98640.81;;;32.17;49.04
5455;BME280;2750;49.050;9.250;2023-07-20T07:10:00;98643.13;;;32.07;48.27
5455;BME280;2750;49.050;9.250;2023-07-20T07:15:01;98639.53;;;30.42;50.68
5455;BME280;2750;49.050;9.250;2023-07-20T07:20:06;98642.19;;;31.22;50.70
5455;BME280;2750;49.050;9.250;2023-07-20T07:25:08;98632.25;;;31.75;49.84
5455;BME280;2750;49.050;9.250;2023-07-20T07:30:11;98641.63;;;29.71;52.38
5455;BME280;2750;49.050;9.250;2023-07-20T07:35:14;98626.47;;;30.26;51.88
5455;BME280;2750;49.050;9.250;2023-07-20T07:40:16;98632.53;;;29.66;52.56
5455;BME280;2750;49.050;9.250;2023-07-20T07:45:18;98611.63;;;30.23;51.63
5455;BME280;2750;49.050;9.250;2023-07-20T07:50:21;98627.66;;;29.48;53.00
5455;BME280;2750;49.050;9.250;2023-07-20T07:55:24;98624.28;;;29.12;52.95
5455;BME280;2750;49.050;9.250;2023-07-20T08:00:26;98621.13;;;31.00;51.49
5455;BME280;2750;49.050;9.250;2023-07-20T08:05:29;98623.25;;;29.96;52.76
5455;BME280;2750;49.050;9.250;2023-07-20T08:10:31;98639.13;;;29.35;52.56
5455;BME280;2750;49.050;9.250;2023-07-20T08:15:33;98635.31;;;26.82;57.09
5455;BME280;2750;49.050;9.250;2023-07-20T08:20:35;98631.28;;;27.32;56.30
5455;BME280;2750;49.050;9.250;2023-07-20T08:25:37;98628.31;;;25.89;58.74
5455;BME280;2750;49.050;9.250;2023-07-20T08:30:40;98635.16;;;27.06;56.98
5455;BME280;2750;49.050;9.250;2023-07-20T08:35:44;98628.09;;;26.68;56.29
5455;BME280;2750;49.050;9.250;2023-07-20T08:40:46;98621.78;;;27.81;54.34
5455;BME280;2750;49.050;9.250;2023-07-20T08:45:48;98640.56;;;28.17;53.54
5455;BME280;2750;49.050;9.250;2023-07-20T08:50:52;98627.59;;;28.71;52.87
5455;BME280;2750;49.050;9.250;2023-07-20T08:55:54;98629.00;;;29.10;51.27
5455;BME280;2750;49.050;9.250;2023-07-20T09:00:56;98635.25;;;28.74;52.42
5455;BME280;2750;49.050;9.250;2023-07-20T09:06:00;98629.75;;;27.96;52.84
5455;BME280;2750;49.050;9.250;2023-07-20T09:11:02;98623.50;;;27.89;53.19
5455;BME280;2750;49.050;9.250;2023-07-20T09:16:04;98622.84;;;28.31;51.41
5455;BME280;2750;49.050;9.250;2023-07-20T09:21:07;98636.16;;;26.83;54.68
5455;BME280;2750;49.050;9.250;2023-07-20T09:26:12;98624.47;;;26.61;54.55
5455;BME280;2750;49.050;9.250;2023-07-20T09:31:16;98630.94;;;26.05;54.12
5455;BME280;2750;49.050;9.250;2023-07-20T09:36:20;98631.69;;;25.83;56.58
5455;BME280;2750;49.050;9.250;2023-07-20T09:41:21;98627.63;;;26.34;55.78
5455;BME280;2750;49.050;9.250;2023-07-20T09:46:23;98620.38;;;26.28;55.34
5455;BME280;2750;49.050;9.250;2023-07-20T09:51:26;98634.47;;;25.89;55.45
5455;BME280;2750;49.050;9.250;2023-07-20T09:56:29;98637.69;;;26.15;55.35
5455;BME280;2750;49.050;9.250;2023-07-20T10:01:32;98637.66;;;26.32;55.75
5455;BME280;2750;49.050;9.250;2023-07-20T10:06:41;98623.25;;;25.71;56.40
5455;BME280;2750;49.050;9.250;2023-07-20T10:11:47;98632.72;;;26.74;54.38
5455;BME280;2750;49.050;9.250;2023-07-20T10:16:51;98640.94;;;26.34;55.02
5455;BME280;2750;49.050;9.250;2023-07-20T10:21:57;98619.34;;;26.59;55.10
5455;BME280;2750;49.050;9.250;2023-07-20T10:27:01;98618.50;;;26.82;52.52
5455;BME280;2750;49.050;9.250;2023-07-20T10:32:04;98604.75;;;26.25;54.29
5455;BME280;2750;49.050;9.250;2023-07-20T10:37:07;98610.22;;;26.77;54.41
5455;BME280;2750;49.050;9.250;2023-07-20T10:42:10;98608.69;;;25.98;54.24
5455;BME280;2750;49.050;9.250;2023-07-20T10:47:12;98596.00;;;27.07;53.49
5455;BME280;2750;49.050;9.250;2023-07-20T10:52:15;98601.34;;;27.07;51.55
5455;BME280;2750;49.050;9.250;2023-07-20T10:57:25;98590.94;;;27.49;51.26
5455;BME280;2750;49.050;9.250;2023-07-20T11:02:42;98590.06;;;28.08;51.46
5455;BME280;2750;49.050;9.250;2023-07-20T11:07:45;98600.56;;;27.36;50.11
5455;BME280;2750;49.050;9.250;2023-07-20T11:18:27;98577.09;;;28.55;48.94
5455;BME280;2750;49.050;9.250;2023-07-20T11:23:31;98580.31;;;27.27;47.74
5455;BME280;2750;49.050;9.250;2023-07-20T11:28:34;98585.47;;;27.14;49.39
5455;BME280;2750;49.050;9.250;2023-07-20T11:33:35;98577.16;;;27.90;49.01
5455;BME280;2750;49.050;9.250;2023-07-20T11:38:41;98567.31;;;27.90;49.93
5455;BME280;2750;49.050;9.250;2023-07-20T11:43:45;98571.69;;;27.83;50.58
5455;BME280;2750;49.050;9.250;2023-07-20T11:48:46;98572.88;;;28.10;49.04
5455;BME280;2750;49.050;9.250;2023-07-20T11:53:50;98574.59;;;28.18;48.06
5455;BME280;2750;49.050;9.250;2023-07-20T11:58:54;98565.09;;;27.35;49.73
5455;BME280;2750;49.050;9.250;2023-07-20T12:03:57;98551.69;;;27.58;49.49
5455;BME280;2750;49.050;9.250;2023-07-20T12:09:00;98552.91;;;27.91;48.68
5455;BME280;2750;49.050;9.250;2023-07-20T12:14:03;98545.81;;;27.98;48.98
5455;BME280;2750;49.050;9.250;2023-07-20T12:19:06;98542.97;;;28.57;47.03
5455;BME280;2750;49.050;9.250;2023-07-20T12:24:10;98535.72;;;28.30;47.74
5455;BME280;2750;49.050;9.250;2023-07-20T12:29:12;98527.84;;;28.43;47.43
5455;BME280;2750;49.050;9.250;2023-07-20T12:34:13;98517.94;;;29.35;47.26
5455;BME280;2750;49.050;9.250;2023-07-20T12:39:16;98525.19;;;28.85;46.35
5455;BME280;2750;49.050;9.250;2023-07-20T12:44:18;98505.41;;;29.42;46.46
5455;BME280;2750;49.050;9.250;2023-07-20T12:49:20;98498.91;;;28.95;45.64
5455;BME280;2750;49.050;9.250;2023-07-20T12:54:22;98498.38;;;29.07;45.31
5455;BME280;2750;49.050;9.250;2023-07-20T12:59:24;98486.50;;;29.91;44.03
5455;BME280;2750;49.050;9.250;2023-07-20T13:04:25;98487.38;;;30.18;42.86
5455;BME280;2750;49.050;9.250;2023-07-20T13:09:28;98479.81;;;30.61;43.67
5455;BME280;2750;49.050;9.250;2023-07-20T13:14:30;98475.81;;;30.11;44.39
5455;BME280;2750;49.050;9.250;2023-07-20T13:19:32;98482.31;;;30.43;43.30
5455;BME280;2750;49.050;9.250;2023-07-20T13:24:35;98477.81;;;29.07;45.35
5455;BME280;2750;49.050;9.250;2023-07-20T13:29:36;98469.53;;;29.30;46.04
5455;BME280;2750;49.050;9.250;2023-07-20T13:34:38;98463.69;;;29.48;45.23
5455;BME280;2750;49.050;9.250;2023-07-20T13:39:41;98462.91;;;30.67;44.14
5455;BME280;2750;49.050;9.250;2023-07-20T13:44:42;98458.31;;;30.08;44.76
5455;BME280;2750;49.050;9.250;2023-07-20T13:49:44;98465.34;;;29.55;45.28
5455;BME280;2750;49.050;9.250;2023-07-20T13:54:47;98459.41;;;30.60;43.98
5455;BME280;2750;49.050;9.250;2023-07-20T13:59:49;98443.53;;;30.38;43.89
5455;BME280;2750;49.050;9.250;2023-07-20T14:04:50;98443.13;;;30.81;42.79
5455;BME280;2750;49.050;9.250;2023-07-20T14:09:56;98444.19;;;31.44;42.06
5455;BME280;2750;49.050;9.250;2023-07-20T14:14:57;98427.91;;;33.32;41.10
5455;BME280;2750;49.050;9.250;2023-07-20T14:19:59;98432.00;;;32.24;41.73
5455;BME280;2750;49.050;9.250;2023-07-20T14:25:04;98434.75;;;31.28;42.15
5455;BME280;2750;49.050;9.250;2023-07-20T14:30:06;98423.34;;;32.22;41.38
5455;BME280;2750;49.050;9.250;2023-07-20T14:35:09;98413.75;;;33.85;40.87
5455;BME280;2750;49.050;9.250;2023-07-20T14:40:12;98408.28;;;33.43;41.72
5455;BME280;2750;49.050;9.250;2023-07-20T14:45:14;98406.09;;;34.00;40.75
5455;BME280;2750;49.050;9.250;2023-07-20T14:50:16;98409.34;;;33.90;40.81
5455;BME280;2750;49.050;9.250;2023-07-20T14:55:19;98404.78;;;33.43;40.77
5455;BME280;2750;49.050;9.250;2023-07-20T15:00:21;98407.72;;;32.37;41.28
5455;BME280;2750;49.050;9.250;2023-07-20T15:05:23;98398.41;;;33.01;39.58
5455;BME280;2750;49.050;9.250;2023-07-20T15:10:28;98384.38;;;34.48;39.16
5455;BME280;2750;49.050;9.250;2023-07-20T15:15:30;98389.50;;;35.19;38.43
5455;BME280;2750;49.050;9.250;2023-07-20T15:20:32;98396.78;;;33.36;39.89
5455;BME280;2750;49.050;9.250;2023-07-20T15:25:35;98377.53;;;33.69;40.80
5455;BME280;2750;49.050;9.250;2023-07-20T15:30:37;98378.69;;;32.70;40.78
5455;BME280;2750;49.050;9.250;2023-07-20T15:35:38;98374.91;;;32.04;41.35
5455;BME280;2750;49.050;9.250;2023-07-20T15:40:44;98362.00;;;32.19;41.23
5455;BME280;2750;49.050;9.250;2023-07-20T15:45:47;98361.97;;;33.71;40.11
5455;BME280;2750;49.050;9.250;2023-07-20T15:50:49;98356.13;;;35.65;38.84
5455;BME280;2750;49.050;9.250;2023-07-20T15:55:56;98360.38;;;34.05;39.40
5455;BME280;2750;49.050;9.250;2023-07-20T16:00:58;98342.56;;;33.92;39.48
5455;BME280;2750;49.050;9.250;2023-07-20T16:05:59;98338.03;;;34.63;39.38
5455;BME280;2750;49.050;9.250;2023-07-20T16:11:03;98338.81;;;33.04;40.61
5455;BME280;2750;49.050;9.250;2023-07-20T16:16:04;98330.28;;;32.03;40.91
5455;BME280;2750;49.050;9.250;2023-07-20T16:21:06;98326.66;;;31.91;41.78
5455;BME280;2750;49.050;9.250;2023-07-20T16:26:09;98331.69;;;31.05;42.36
5455;BME280;2750;49.050;9.250;2023-07-20T16:31:10;98332.41;;;30.67;42.51
5455;BME280;2750;49.050;9.250;2023-07-20T16:36:14;98330.06;;;30.91;42.12
5455;BME280;2750;49.050;9.250;2023-07-20T16:41:17;98327.69;;;31.20;42.40
5455;BME280;2750;49.050;9.250;2023-07-20T16:46:18;98325.91;;;30.95;42.02
5455;BME280;2750;49.050;9.250;2023-07-20T16:51:20;98321.66;;;31.25;42.19
5455;BME280;2750;49.050;9.250;2023-07-20T16:56:23;98314.34;;;31.45;42.32
5455;BME280;2750;49.050;9.250;2023-07-20T17:01:24;98314.69;;;30.40;42.63
5455;BME280;2750;49.050;9.250;2023-07-20T17:06:26;98320.53;;;30.04;43.09
5455;BME280;2750;49.050;9.250;2023-07-20T17:11:29;98312.66;;;29.76;43.92
5455;BME280;2750;49.050;9.250;2023-07-20T17:16:31;98311.97;;;29.41;44.04
5455;BME280;2750;49.050;9.250;2023-07-20T17:21:32;98316.91;;;29.38;44.75
5455;BME280;2750;49.050;9.250;2023-07-20T17:26:36;98314.81;;;29.27;44.93
5455;BME280;2750;49.050;9.250;2023-07-20T17:31:38;98317.25;;;29.22;44.87
5455;BME280;2750;49.050;9.250;2023-07-20T17:36:39;98306.19;;;28.71;45.72
5455;BME280;2750;49.050;9.250;2023-07-20T17:41:42;98306.03;;;28.92;45.79
5455;BME280;2750;49.050;9.250;2023-07-20T17:46:45;98307.66;;;28.86;45.76
5455;BME280;2750;49.050;9.250;2023-07-20T17:51:47;98308.53;;;28.59;45.64
5455;BME280;2750;49.050;9.250;2023-07-20T17:56:50;98315.38;;;28.34;46.36
5455;BME280;2750;49.050;9.250;2023-07-20T18:01:52;98313.41;;;28.49;47.44
5455;BME280;2750;49.050;9.250;2023-07-20T18:06:53;98308.00;;;28.36;46.74
5455;BME280;2750;49.050;9.250;2023-07-20T18:11:56;98316.00;;;27.87;47.55
5455;BME280;2750;49.050;9.250;2023-07-20T18:16:57;98313.22;;;27.74;47.52
5455;BME280;2750;49.050;9.250;2023-07-20T18:21:59;98308.19;;;27.85;47.75
5455;BME280;2750;49.050;9.250;2023-07-20T18:27:02;98305.03;;;27.54;50.16
5455;BME280;2750;49.050;9.250;2023-07-20T18:32:05;98312.63;;;27.36;50.61
5455;BME280;2750;49.050;9.250;2023-07-20T18:37:06;98313.47;;;27.00;50.63
5455;BME280;2750;49.050;9.250;2023-07-20T18:42:09;98318.50;;;26.81;51.56
5455;BME280;2750;49.050;9.250;2023-07-20T18:47:11;98326.34;;;26.15;52.52
5455;BME280;2750;49.050;9.250;2023-07-20T18:52:12;98314.84;;;25.86;53.55
5455;BME280;2750;49.050;9.250;2023-07-20T18:57:15;98316.81;;;25.84;53.24
5455;BME280;2750;49.050;9.250;2023-07-20T19:02:17;98317.63;;;25.69;52.84
5455;BME280;2750;49.050;9.250;2023-07-20T19:07:19;98322.59;;;25.42;53.84
5455;BME280;2750;49.050;9.250;2023-07-20T19:12:22;98327.41;;;25.46;53.20
5455;BME280;2750;49.050;9.250;2023-07-20T19:17:24;98330.75;;;25.71;53.25
5455;BME280;2750;49.050;9.250;2023-07-20T19:22:26;98324.75;;;25.92;53.70
5455;BME280;2750;49.050;9.250;2023-07-20T19:27:28;98328.38;;;25.76;52.69
5455;BME280;2750;49.050;9.250;2023-07-20T19:32:30;98330.47;;;25.35;52.89
5455;BME280;2750;49.050;9.250;2023-07-20T19:37:31;98337.88;;;24.86;54.36
5455;BME280;2750;49.050;9.250;2023-07-20T19:42:34;98344.16;;;24.85;54.69
5455;BME280;2750;49.050;9.250;2023-07-20T19:47:36;98331.19;;;24.98;55.12
5455;BME280;2750;49.050;9.250;2023-07-20T19:52:38;98343.13;;;25.02;55.49
5455;BME280;2750;49.050;9.250;2023-07-20T19:57:41;98345.56;;;25.04;56.81
5455;BME280;2750;49.050;9.250;2023-07-20T20:02:43;98347.16;;;24.90;57.33
5455;BME280;2750;49.050;9.250;2023-07-20T20:07:44;98347.88;;;24.68;56.03
5455;BME280;2750;49.050;9.250;2023-07-20T20:12:47;98353.84;;;24.62;56.73
5455;BME280;2750;49.050;9.250;2023-07-20T20:17:49;98346.25;;;24.43;56.94
5455;BME280;2750;49.050;9.250;2023-07-20T20:22:50;98350.25;;;24.31;57.22
5455;BME280;2750;49.050;9.250;2023-07-20T20:27:55;98340.13;;;24.34;57.45
5455;BME280;2750;49.050;9.250;2023-07-20T20:32:56;98343.63;;;24.26;57.96
5455;BME280;2750;49.050;9.250;2023-07-20T20:37:58;98351.28;;;24.21;57.71
5455;BME280;2750;49.050;9.250;2023-07-20T20:43:01;98337.53;;;24.18;56.21
5455;BME280;2750;49.050;9.250;2023-07-20T20:48:03;98337.34;;;24.19;56.37
5455;BME280;2750;49.050;9.250;2023-07-20T20:53:07;98341.50;;;23.98;58.84
5455;BME280;2750;49.050;9.250;2023-07-20T20:58:10;98333.72;;;23.72;58.46
5455;BME280;2750;49.050;9.250;2023-07-20T21:03:12;98341.97;;;23.45;58.74
5455;BME280;2750;49.050;9.250;2023-07-20T21:08:14;98337.69;;;23.52;58.37
5455;BME280;2750;49.050;9.250;2023-07-20T21:13:17;98346.88;;;23.31;59.36
5455;BME280;2750;49.050;9.250;2023-07-20T21:18:18;98351.50;;;23.21;59.52
5455;BME280;2750;49.050;9.250;2023-07-20T21:23:20;98343.69;;;23.12;57.46
5455;BME280;2750;49.050;9.250;2023-07-20T21:28:23;98346.47;;;23.02;57.70
5455;BME280;2750;49.050;9.250;2023-07-20T21:33:25;98346.84;;;22.73;58.11
5455;BME280;2750;49.050;9.250;2023-07-20T21:38:26;98347.88;;;22.55;60.35
5455;BME280;2750;49.050;9.250;2023-07-20T21:43:30;98342.13;;;22.59;60.38
5455;BME280;2750;49.050;9.250;2023-07-20T21:48:32;98338.50;;;22.60;61.51
5455;BME280;2750;49.050;9.250;2023-07-20T21:53:33;98330.59;;;22.34;61.52
5455;BME280;2750;49.050;9.250;2023-07-20T21:58:36;98334.22;;;22.33;61.44
5455;BME280;2750;49.050;9.250;2023-07-20T22:03:38;98328.94;;;22.08;62.62
5455;BME280;2750;49.050;9.250;2023-07-20T22:08:40;98334.84;;;21.84;64.27
5455;BME280;2750;49.050;9.250;2023-07-20T22:13:43;98333.47;;;21.62;65.02
5455;BME280;2750;49.050;9.250;2023-07-20T22:18:45;98337.69;;;21.90;63.77
5455;BME280;2750;49.050;9.250;2023-07-20T22:23:48;98349.13;;;21.56;64.44
5455;BME280;2750;49.050;9.250;2023-07-20T22:28:51;98341.09;;;21.83;63.71
5455;BME280;2750;49.050;9.250;2023-07-20T22:33:53;98342.94;;;21.65;63.20
5455;BME280;2750;49.050;9.250;2023-07-20T22:38:55;98357.25;;;21.44;64.00
5455;BME280;2750;49.050;9.250;2023-07-20T22:43:58;98344.09;;;21.17;65.08
5455;BME280;2750;49.050;9.250;2023-07-20T22:49:00;98352.13;;;21.25;65.10
5455;BME280;2750;49.050;9.250;2023-07-20T22:54:01;98343.81;;;21.20;65.08
5455;BME280;2750;49.050;9.250;2023-07-20T22:59:04;98346.34;;;21.12;65.27
5455;BME280;2750;49.050;9.250;2023-07-20T23:04:06;98349.16;;;21.01;66.26
5455;BME280;2750;49.050;9.250;2023-07-20T23:09:07;98343.88;;;21.01;65.41
5455;BME280;2750;49.050;9.250;2023-07-20T23:14:11;98338.25;;;20.13;69.01
5455;BME280;2750;49.050;9.250;2023-07-20T23:19:12;98335.03;;;20.38;68.52
5455;BME280;2750;49.050;9.250;2023-07-20T23:24:14;98342.34;;;20.81;67.48
5455;BME280;2750;49.050;9.250;2023-07-20T23:29:17;98334.28;;;20.82;67.01
5455;BME280;2750;49.050;9.250;2023-07-20T23:34:18;98333.47;;;19.89;69.63
5455;BME280;2750;49.050;9.250;2023-07-20T23:39:20;98333.72;;;19.86;70.08
5455;BME280;2750;49.050;9.250;2023-07-20T23:44:24;98321.75;;;20.01;68.40
5455;BME280;2750;49.050;9.250;2023-07-20T23:49:28;98324.50;;;20.28;66.85
5455;BME280;2750;49.050;9.250;2023-07-20T23:54:29;98324.84;;;19.87;69.59
5455;BME280;2750;49.050;9.250;2023-07-20T23:59:32;98320.06;;;20.19;69.44
